Погода Мукурина неделю

Баия, Бразилия

25 - 31 июля
  • 25июля
    Сегодня
    +19°
    +26°
    Практически безоблачно
    ВремяПогодаТемператураВлажностьДавлениеВетер, м/сВероятность осадков
    00:00Ясно и безоблачно+20°C66 %768 мм3.3 м/с7 %
    03:00Практически безоблачно+18°C68 %767 мм0.8 м/с4 %
    06:00Небольшая облачность+18°C87 %767 мм2.0 м/с12 %
    09:00Ясно и безоблачно+23°C76 %768 мм1.7 м/с17 %
    12:00Практически безоблачно+26°C67 %767 мм2.2 м/с17 %
    15:00Практически безоблачно+25°C65 %766 мм2.3 м/с3 %
    18:00Ясно и безоблачно+23°C62 %766 мм2.3 м/с5 %
    21:00Ясно и безоблачно+22°C60 %766 мм3.1 м/с5 %
  • 26июля
    Пятница
    +19°
    +27°
    Ясно и безоблачно
    ВремяПогодаТемператураВлажностьДавлениеВетер, м/сВероятность осадков
    00:00Практически безоблачно+21°C69 %766 мм3.5 м/с5 %
    03:00Небольшая облачность+21°C76 %765 мм3.9 м/с5 %
    06:00Практически безоблачно+19°C84 %765 мм2.7 м/с14 %
    09:00Практически безоблачно+24°C70 %767 мм3.5 м/с31 %
    12:00Практически безоблачно+26°C68 %766 мм4.2 м/с50 %
    15:00Ясно и безоблачно+26°C68 %764 мм4.5 м/с30 %
    18:00Ясно и безоблачно+23°C77 %765 мм3.6 м/с4 %
    21:00Ясно и безоблачно+22°C82 %766 мм3.5 м/с4 %
  • 27июля
    Суббота
    +18°
    +28°
    Практически безоблачно
    ВремяПогодаТемператураВлажностьДавлениеВетер, м/сВероятность осадков
    00:00Ясно и безоблачно+21°C83 %766 мм3.4 м/с2 %
    03:00Ясно и безоблачно+20°C84 %765 мм3.1 м/с11 %
    06:00Практически безоблачно+20°C89 %765 мм1.9 м/с37 %
    09:00Облачно с прояснениями+24°C75 %767 мм1.5 м/с40 %
    12:00Практически безоблачно+27°C66 %766 мм3.6 м/с45 %
    15:00Практически безоблачно+27°C68 %765 мм4.8 м/с42 %
    18:00Практически безоблачно+24°C77 %766 мм3.9 м/с18 %
    21:00Пасмурно, сплошная облачность+23°C81 %767 мм3.4 м/с6 %
  • 28июля
    Воскресенье
    +18°
    +28°
    Практически безоблачно
    ВремяПогодаТемператураВлажностьДавлениеВетер, м/сВероятность осадков
    00:00Ясно и безоблачно+21°C83 %767 мм3.5 м/с9 %
    03:00Ясно и безоблачно+20°C86 %766 мм2.6 м/с13 %
    06:00Практически безоблачно+19°C92 %766 мм2.7 м/с20 %
    09:00Ясно и безоблачно+25°C76 %768 мм2.2 м/с38 %
    12:00Небольшая облачность+27°C72 %767 мм2.8 м/с41 %
    15:00Практически безоблачно+27°C68 %765 мм5.3 м/с31 %
    18:00Практически безоблачно+24°C74 %766 мм4.7 м/с9 %
    21:00Ясно и безоблачно+23°C78 %767 мм4.1 м/с11 %
  • 29июля
    Понедельник
    +18°
    +28°
    Практически безоблачно
    ВремяПогодаТемператураВлажностьДавлениеВетер, м/сВероятность осадков
    00:00Ясно и безоблачно+20°C86 %767 мм2.6 м/с14 %
    03:00Ясно и безоблачно+19°C88 %766 мм2.1 м/с16 %
    06:00Ясно и безоблачно+19°C92 %766 мм2.1 м/с19 %
    09:00Ясно и безоблачно+24°C76 %767 мм2.3 м/с14 %
    12:00Практически безоблачно+28°C66 %766 мм3.8 м/с6 %
    15:00Практически безоблачно+28°C70 %764 мм5.4 м/с5 %
    18:00Практически безоблачно+25°C74 %765 мм5.3 м/с5 %
    21:00Ясно и безоблачно+23°C83 %765 мм4.7 м/с5 %
Мы используем cookies
Соглашаюсь